createdAt,value
2024-03-09T00:00:29.298Z,41.18
2024-03-09T00:03:01.367Z,41.77
2024-03-09T00:05:29.346Z,42.03
2024-03-09T00:07:58.529Z,42.08
2024-03-09T00:10:28.270Z,41.62
2024-03-09T00:12:56.447Z,41.46
2024-03-09T00:15:25.340Z,42.47
2024-03-09T00:17:57.376Z,42.23
2024-03-09T00:20:29.150Z,42.01
2024-03-09T00:22:59.407Z,42.87
2024-03-09T00:25:30.289Z,42.06
2024-03-09T00:27:58.744Z,43.17
2024-03-09T00:30:33.049Z,43.09
2024-03-09T00:33:01.586Z,42.95
2024-03-09T00:35:30.694Z,42.91
2024-03-09T00:37:59.509Z,43.23
2024-03-09T00:40:29.819Z,43.05
2024-03-09T00:42:58.696Z,42.58
2024-03-09T00:45:26.883Z,43.51
2024-03-09T00:47:53.746Z,43.37
2024-03-09T00:50:22.626Z,44.53
2024-03-09T00:52:49.725Z,43.48
2024-03-09T00:55:16.896Z,42.96
2024-03-09T00:57:52.755Z,43.38
2024-03-09T01:00:21.221Z,43.58
2024-03-09T01:02:52.241Z,43.35
2024-03-09T01:05:21.475Z,43.69
2024-03-09T01:07:50.981Z,43.54
2024-03-09T01:10:17.782Z,43.88
2024-03-09T01:12:44.823Z,43.97
2024-03-09T01:15:11.799Z,44.46
2024-03-09T01:17:39.550Z,43.81
2024-03-09T01:20:09.077Z,42.91
2024-03-09T01:22:37.570Z,43.72
2024-03-09T01:25:05.223Z,44.62
2024-03-09T01:27:31.930Z,43.66
2024-03-09T01:30:02.047Z,43.48
2024-03-09T01:32:29.700Z,44.04
2024-03-09T01:34:57.748Z,43.73
2024-03-09T01:37:25.300Z,43.69
2024-03-09T01:39:52.706Z,42.70
2024-03-09T01:42:20.270Z,43.63
2024-03-09T01:44:49.110Z,43.56
2024-03-09T01:47:20.090Z,43.80
2024-03-09T01:49:47.280Z,43.60
2024-03-09T01:52:15.095Z,43.36
2024-03-09T01:54:43.639Z,43.42
2024-03-09T01:57:11.002Z,43.20
2024-03-09T01:59:40.175Z,42.89
2024-03-09T02:02:07.796Z,43.30
2024-03-09T02:04:36.056Z,43.28
2024-03-09T02:07:03.651Z,43.62
2024-03-09T02:09:30.561Z,44.06
2024-03-09T02:12:02.140Z,43.62
2024-03-09T02:14:29.580Z,43.91
2024-03-09T02:16:56.531Z,43.12
2024-03-09T02:19:23.267Z,43.87
2024-03-09T02:21:50.114Z,43.91
2024-03-09T02:24:21.959Z,44.02
2024-03-09T02:26:51.067Z,43.51
2024-03-09T02:29:20.049Z,43.72
2024-03-09T02:31:47.094Z,43.72
2024-03-09T02:34:13.865Z,43.42
2024-03-09T02:36:40.549Z,43.65
2024-03-09T02:39:10.815Z,44.79
2024-03-09T02:41:38.255Z,42.90
2024-03-09T02:44:05.907Z,42.93
2024-03-09T02:46:32.741Z,43.34
2024-03-09T02:48:59.413Z,42.92
2024-03-09T02:51:26.858Z,43.02
2024-03-09T02:53:53.973Z,43.59
2024-03-09T02:56:21.914Z,42.96
2024-03-09T02:58:49.986Z,43.09
2024-03-09T03:01:21.706Z,43.22
2024-03-09T03:03:58.297Z,43.61
2024-03-09T03:06:29.336Z,42.81
2024-03-09T03:08:58.672Z,43.56
2024-03-09T03:11:25.661Z,44.03
2024-03-09T03:13:53.883Z,42.90
2024-03-09T03:16:32.998Z,42.84
2024-03-09T03:19:00.964Z,42.43
2024-03-09T03:21:28.604Z,43.50
2024-03-09T03:23:55.877Z,43.36
2024-03-09T03:26:22.791Z,42.40
2024-03-09T03:28:51.875Z,43.18
2024-03-09T03:31:21.107Z,43.14
2024-03-09T03:33:50.610Z,42.70
2024-03-09T03:36:20.523Z,42.43
2024-03-09T03:38:48.751Z,42.26
2024-03-09T03:41:18.258Z,42.63
2024-03-09T03:43:46.164Z,42.52
2024-03-09T03:46:15.377Z,43.07
2024-03-09T03:48:46.620Z,43.37
2024-03-09T03:51:15.246Z,42.58
2024-03-09T03:53:43.438Z,42.61
2024-03-09T03:56:11.179Z,43.16
2024-03-09T03:58:39.110Z,43.01
2024-03-09T04:01:07.451Z,43.16
2024-03-09T04:03:38.265Z,42.37
2024-03-09T04:06:08.520Z,42.03
2024-03-09T04:08:36.431Z,41.88
2024-03-09T04:11:07.633Z,42.25
2024-03-09T04:13:34.578Z,42.06
2024-03-09T04:16:04.801Z,41.49
2024-03-09T04:18:31.944Z,41.93
2024-03-09T04:20:59.128Z,41.83
2024-03-09T04:23:26.062Z,42.19
2024-03-09T04:25:54.251Z,41.96
2024-03-09T04:28:29.003Z,41.55
2024-03-09T04:30:58.420Z,41.99
2024-03-09T04:33:25.819Z,42.00
2024-03-09T04:35:54.107Z,41.94
2024-03-09T04:38:21.932Z,41.72
2024-03-09T04:40:50.917Z,41.78
2024-03-09T04:43:19.439Z,41.69
2024-03-09T04:45:47.152Z,42.09
2024-03-09T04:48:15.288Z,41.43
2024-03-09T04:50:47.971Z,41.56
2024-03-09T04:53:16.018Z,40.63
2024-03-09T04:55:49.121Z,41.08
2024-03-09T04:58:16.797Z,41.26
2024-03-09T05:00:44.781Z,41.49
2024-03-09T05:03:15.759Z,41.90
2024-03-09T05:05:43.840Z,40.74
2024-03-09T05:08:10.773Z,41.48
2024-03-09T05:10:41.159Z,40.86
2024-03-09T05:13:09.139Z,42.34
2024-03-09T05:15:37.507Z,40.87
2024-03-09T05:18:09.584Z,40.68
2024-03-09T05:20:37.024Z,41.96
2024-03-09T05:23:05.416Z,42.57
2024-03-09T05:25:32.598Z,41.30
2024-03-09T05:27:59.959Z,41.84
2024-03-09T05:30:30.740Z,42.14
2024-03-09T05:33:00.220Z,41.37
2024-03-09T05:35:29.548Z,41.60
2024-03-09T05:38:00.320Z,40.74
2024-03-09T05:40:30.189Z,41.77
2024-03-09T05:43:00.047Z,40.51
2024-03-09T05:45:26.907Z,41.39
2024-03-09T05:47:55.572Z,41.26
2024-03-09T05:50:25.422Z,42.20
2024-03-09T05:52:55.328Z,41.94
2024-03-09T05:55:23.162Z,41.74
2024-03-09T05:57:51.648Z,41.05
2024-03-09T06:00:20.940Z,40.68
2024-03-09T06:02:48.262Z,41.13
2024-03-09T06:05:16.769Z,40.59
2024-03-09T06:07:47.849Z,40.85
2024-03-09T06:10:18.747Z,40.65
2024-03-09T06:12:50.517Z,40.03
2024-03-09T06:15:20.700Z,40.26
2024-03-09T06:17:57.168Z,40.00
2024-03-09T06:20:33.210Z,40.91
2024-03-09T06:23:00.002Z,39.91
2024-03-09T06:25:27.595Z,40.52
2024-03-09T06:27:57.026Z,40.00
2024-03-09T06:30:28.968Z,40.65
2024-03-09T06:32:59.833Z,40.00
2024-03-09T06:35:27.266Z,40.69
2024-03-09T06:38:00.766Z,39.56
2024-03-09T06:40:32.940Z,40.02
2024-03-09T06:43:01.412Z,40.72
2024-03-09T06:45:29.335Z,39.31
2024-03-09T06:48:00.444Z,39.54
2024-03-09T06:50:28.718Z,39.34
2024-03-09T06:52:56.385Z,39.34
2024-03-09T06:55:30.433Z,39.02
2024-03-09T06:58:02.841Z,38.69
2024-03-09T07:00:31.629Z,39.84
2024-03-09T07:03:02.112Z,39.59
2024-03-09T07:05:31.766Z,39.05
2024-03-09T07:08:02.074Z,39.31
2024-03-09T07:10:30.178Z,39.09
2024-03-09T07:12:58.342Z,40.00
2024-03-09T07:15:30.696Z,39.02
2024-03-09T07:17:58.231Z,38.67
2024-03-09T07:20:27.396Z,38.57
2024-03-09T07:22:54.966Z,38.24
2024-03-09T07:25:25.935Z,38.01
2024-03-09T07:27:57.893Z,38.25
2024-03-09T07:30:26.032Z,38.08
2024-03-09T07:32:55.829Z,37.16
2024-03-09T07:35:29.034Z,37.98
2024-03-09T07:38:00.009Z,37.44
2024-03-09T07:40:27.967Z,36.95
2024-03-09T07:42:55.223Z,37.01
2024-03-09T07:45:31.336Z,36.99
2024-03-09T07:48:00.717Z,37.46
2024-03-09T07:50:28.941Z,36.92
2024-03-09T07:52:57.637Z,37.07
2024-03-09T07:55:27.319Z,36.89
2024-03-09T07:58:05.175Z,38.25
2024-03-09T08:00:40.782Z,37.58
2024-03-09T08:03:07.490Z,38.29
2024-03-09T08:05:34.398Z,37.73
2024-03-09T08:08:04.538Z,37.01
2024-03-09T08:10:33.388Z,37.62
2024-03-09T08:13:00.571Z,37.91
2024-03-09T08:15:30.189Z,36.53
2024-03-09T08:18:00.268Z,36.85
2024-03-09T08:20:28.028Z,36.66
2024-03-09T08:22:55.793Z,36.18
2024-03-09T08:25:26.853Z,35.37
2024-03-09T08:27:53.698Z,35.60
2024-03-09T08:30:20.547Z,34.54
2024-03-09T08:32:49.298Z,34.67
2024-03-09T08:35:18.099Z,34.44
2024-03-09T08:37:46.490Z,34.20
2024-03-09T08:40:18.527Z,34.53
2024-03-09T08:42:53.390Z,34.19
2024-03-09T08:45:24.772Z,33.88
2024-03-09T08:47:53.335Z,32.91
2024-03-09T08:50:22.973Z,33.32
2024-03-09T08:52:50.544Z,32.76
2024-03-09T08:55:18.480Z,33.03
2024-03-09T08:57:47.617Z,32.62
2024-03-09T09:00:16.742Z,32.39
2024-03-09T09:02:43.738Z,32.98
2024-03-09T09:05:13.664Z,32.16
2024-03-09T09:07:42.129Z,32.25
2024-03-09T09:10:12.145Z,32.68
2024-03-09T09:12:40.629Z,32.08
2024-03-09T09:15:17.998Z,32.71
2024-03-09T09:17:45.266Z,33.37
2024-03-09T09:20:15.308Z,33.27
2024-03-09T09:22:44.681Z,32.93
2024-03-09T09:25:14.584Z,33.74
2024-03-09T09:27:42.001Z,34.55
2024-03-09T09:30:10.713Z,34.56
2024-03-09T09:32:39.453Z,32.76
2024-03-09T09:35:06.610Z,32.51
2024-03-09T09:37:35.137Z,31.51
2024-03-09T09:40:06.200Z,32.08
2024-03-09T09:42:33.550Z,30.59
2024-03-09T09:45:01.595Z,30.77
2024-03-09T09:47:30.491Z,29.32
2024-03-09T09:49:58.657Z,29.09
2024-03-09T09:52:26.391Z,29.00
2024-03-09T09:54:57.850Z,28.33
2024-03-09T09:57:26.488Z,28.16
2024-03-09T09:59:53.709Z,27.86
2024-03-09T10:02:24.254Z,27.59
2024-03-09T10:04:51.886Z,27.89
2024-03-09T10:07:18.909Z,27.99
2024-03-09T10:09:48.301Z,27.75
2024-03-09T10:12:23.650Z,27.89
2024-03-09T10:14:51.412Z,28.01
2024-03-09T10:17:21.779Z,27.47
2024-03-09T10:19:53.909Z,28.10
2024-03-09T10:22:22.204Z,27.89
2024-03-09T10:24:57.437Z,28.77
2024-03-09T10:27:28.532Z,28.46
2024-03-09T10:30:11.408Z,28.25
2024-03-09T10:32:43.346Z,28.48
2024-03-09T10:35:12.574Z,29.08
2024-03-09T10:37:40.776Z,28.84
2024-03-09T10:40:13.688Z,28.14
2024-03-09T10:42:47.078Z,28.00
2024-03-09T10:45:17.127Z,27.11
2024-03-09T10:47:52.104Z,28.11
2024-03-09T10:50:27.385Z,28.02
2024-03-09T10:53:09.438Z,28.03
2024-03-09T10:55:49.835Z,29.64
2024-03-09T10:58:18.542Z,28.06
2024-03-09T11:00:51.088Z,27.14
2024-03-09T11:03:24.371Z,26.54
2024-03-09T11:05:54.565Z,26.53
2024-03-09T11:08:24.138Z,26.44
2024-03-09T11:10:51.997Z,26.15
2024-03-09T11:13:20.573Z,25.08
2024-03-09T11:15:53.720Z,24.16
2024-03-09T11:18:22.849Z,23.89
2024-03-09T11:21:03.955Z,23.32
2024-03-09T11:23:37.544Z,23.13
2024-03-09T11:26:05.250Z,22.48
2024-03-09T11:28:44.328Z,22.36
2024-03-09T11:31:15.513Z,22.62
2024-03-09T11:33:48.559Z,22.85
2024-03-09T11:36:38.736Z,22.95
2024-03-09T11:39:06.011Z,22.48
2024-03-09T11:41:37.135Z,22.16
2024-03-09T11:44:07.588Z,21.72
2024-03-09T11:46:38.116Z,21.77
2024-03-09T11:49:06.083Z,21.38
2024-03-09T11:51:37.427Z,21.17
2024-03-09T11:54:10.028Z,21.50
2024-03-09T11:56:38.164Z,21.53
2024-03-09T11:59:08.007Z,21.33
2024-03-09T12:01:38.412Z,21.02
2024-03-09T12:04:06.941Z,21.13
2024-03-09T12:06:34.575Z,21.85
2024-03-09T12:09:01.845Z,21.66
2024-03-09T12:11:31.140Z,21.12
2024-03-09T12:13:58.783Z,21.23
2024-03-09T12:16:28.231Z,21.37
2024-03-09T12:19:01.077Z,20.85
2024-03-09T12:21:30.740Z,21.17
2024-03-09T12:24:02.162Z,20.21
2024-03-09T12:26:33.051Z,19.19
2024-03-09T12:29:06.313Z,19.02
2024-03-09T12:31:35.166Z,19.00
2024-03-09T12:34:08.886Z,18.94
2024-03-09T12:36:35.741Z,18.86
2024-03-09T12:39:16.658Z,18.78
2024-03-09T12:41:48.662Z,18.62
2024-03-09T12:44:15.555Z,18.38
2024-03-09T12:46:42.528Z,18.33
2024-03-09T12:49:13.137Z,18.55
2024-03-09T12:51:52.214Z,18.59
2024-03-09T12:54:20.665Z,18.23
2024-03-09T12:56:50.800Z,18.65
2024-03-09T12:59:28.249Z,18.74
2024-03-09T13:01:56.296Z,19.08
2024-03-09T13:04:27.831Z,18.96
2024-03-09T13:06:58.108Z,19.12
2024-03-09T13:09:32.779Z,19.15
2024-03-09T13:12:01.030Z,18.72
2024-03-09T13:14:38.667Z,17.93
2024-03-09T13:17:06.875Z,18.53
2024-03-09T13:19:35.105Z,18.32
2024-03-09T13:22:04.067Z,18.18
2024-03-09T13:24:31.889Z,18.46
2024-03-09T13:26:58.819Z,18.46
2024-03-09T13:29:30.261Z,18.12
2024-03-09T13:31:58.440Z,18.23
2024-03-09T13:34:27.476Z,18.59
2024-03-09T13:36:54.959Z,18.33
2024-03-09T13:39:28.845Z,17.96
2024-03-09T13:41:56.002Z,17.63
2024-03-09T13:44:25.667Z,17.34
2024-03-09T13:46:53.301Z,17.41
2024-03-09T13:49:20.622Z,17.61
2024-03-09T13:51:48.317Z,18.16
2024-03-09T13:54:19.031Z,18.22
2024-03-09T13:56:46.551Z,17.97
2024-03-09T13:59:17.057Z,17.34
2024-03-09T14:01:45.373Z,16.94
2024-03-09T14:04:13.764Z,16.20
2024-03-09T14:06:56.242Z,16.91
2024-03-09T14:09:33.373Z,17.17
2024-03-09T14:12:01.240Z,17.12
2024-03-09T14:14:28.919Z,16.89
2024-03-09T14:16:56.907Z,17.50
2024-03-09T14:19:23.608Z,16.72
2024-03-09T14:21:51.927Z,17.49
2024-03-09T14:24:19.551Z,17.43
2024-03-09T14:26:46.891Z,19.88
2024-03-09T14:29:16.360Z,19.35
2024-03-09T14:31:47.743Z,18.44
2024-03-09T14:34:15.040Z,17.63
2024-03-09T14:36:41.749Z,17.16
2024-03-09T14:39:17.689Z,17.37
2024-03-09T14:41:44.762Z,17.48
2024-03-09T14:44:11.511Z,18.23
2024-03-09T14:46:38.329Z,17.43
2024-03-09T14:49:09.470Z,18.09
2024-03-09T14:51:36.540Z,17.85
2024-03-09T14:54:03.311Z,18.09
2024-03-09T14:56:30.104Z,18.20
2024-03-09T14:58:57.335Z,18.49
2024-03-09T15:01:27.079Z,18.56
2024-03-09T15:03:55.431Z,18.76
2024-03-09T15:06:23.569Z,18.51
2024-03-09T15:08:56.679Z,18.80
2024-03-09T15:11:23.565Z,18.10
2024-03-09T15:13:55.006Z,18.96
2024-03-09T15:16:27.689Z,19.06
2024-03-09T15:18:54.962Z,18.88
2024-03-09T15:21:24.281Z,18.88
2024-03-09T15:23:59.559Z,18.91
2024-03-09T15:26:30.115Z,19.91
2024-03-09T15:28:59.061Z,20.23
2024-03-09T15:31:27.811Z,20.16
2024-03-09T15:33:56.265Z,20.10
2024-03-09T15:36:24.935Z,19.61
2024-03-09T15:38:55.372Z,19.10
2024-03-09T15:41:22.377Z,18.77
2024-03-09T15:43:50.184Z,19.09
2024-03-09T15:46:18.989Z,18.74
2024-03-09T15:48:46.793Z,18.42
2024-03-09T15:51:13.630Z,18.51
2024-03-09T15:53:41.735Z,18.47
2024-03-09T15:56:10.830Z,19.04
2024-03-09T15:58:41.606Z,19.05
2024-03-09T16:01:09.265Z,19.58
2024-03-09T16:03:37.222Z,19.41
2024-03-09T16:06:04.440Z,19.09
2024-03-09T16:08:31.609Z,19.18
2024-03-09T16:10:59.036Z,19.51
2024-03-09T16:13:26.061Z,19.47
2024-03-09T16:15:52.742Z,19.32
2024-03-09T16:18:19.605Z,19.92
2024-03-09T16:20:46.573Z,20.91
2024-03-09T16:23:17.037Z,20.40
2024-03-09T16:25:49.320Z,20.21
2024-03-09T16:28:17.642Z,19.82
2024-03-09T16:30:45.171Z,20.41
2024-03-09T16:33:12.655Z,19.81
2024-03-09T16:35:48.813Z,20.44
2024-03-09T16:38:25.593Z,20.44
2024-03-09T16:40:57.765Z,20.98
2024-03-09T16:43:33.097Z,21.91
2024-03-09T16:46:06.859Z,23.29
2024-03-09T16:48:38.094Z,22.98
2024-03-09T16:51:09.521Z,23.76
2024-03-09T16:53:39.734Z,24.98
2024-03-09T16:56:07.310Z,24.52
2024-03-09T16:58:34.130Z,25.22
2024-03-09T17:01:05.793Z,25.55
2024-03-09T17:03:34.006Z,24.80
2024-03-09T17:06:03.522Z,25.49
2024-03-09T17:08:30.621Z,24.99
2024-03-09T17:10:58.931Z,25.75
2024-03-09T17:13:25.817Z,25.81
2024-03-09T17:15:52.639Z,26.44
2024-03-09T17:18:22.770Z,26.71
2024-03-09T17:20:53.653Z,26.91
2024-03-09T17:23:22.076Z,27.85
2024-03-09T17:25:49.540Z,27.80
2024-03-09T17:28:21.357Z,27.46
2024-03-09T17:30:49.851Z,27.19
2024-03-09T17:33:17.257Z,27.71
2024-03-09T17:35:44.078Z,26.92
2024-03-09T17:38:11.647Z,27.48
2024-03-09T17:40:38.817Z,27.20
2024-03-09T17:43:05.697Z,26.76
2024-03-09T17:45:33.177Z,26.73
2024-03-09T17:48:00.621Z,26.50
2024-03-09T17:50:28.641Z,26.80
2024-03-09T17:53:00.145Z,26.35
2024-03-09T17:55:30.705Z,26.91
2024-03-09T17:58:09.241Z,26.62
2024-03-09T18:00:37.334Z,26.66
2024-03-09T18:03:06.030Z,26.54
2024-03-09T18:05:40.983Z,26.50
2024-03-09T18:08:13.468Z,26.35
2024-03-09T18:10:42.536Z,26.71
2024-03-09T18:13:12.009Z,27.28
2024-03-09T18:15:40.960Z,26.35
2024-03-09T18:18:12.113Z,26.55
2024-03-09T18:20:43.212Z,27.17
2024-03-09T18:23:11.373Z,27.15
2024-03-09T18:25:38.912Z,27.58
2024-03-09T18:28:08.992Z,26.58
2024-03-09T18:30:36.374Z,26.03
2024-03-09T18:33:07.908Z,26.69
2024-03-09T18:35:35.447Z,25.95
2024-03-09T18:38:03.569Z,26.31
2024-03-09T18:40:30.485Z,26.31
2024-03-09T18:43:01.051Z,26.51
2024-03-09T18:45:33.992Z,25.84
2024-03-09T18:48:01.701Z,26.01
2024-03-09T18:50:28.531Z,25.21
2024-03-09T18:52:59.256Z,26.07
2024-03-09T18:55:31.052Z,25.97
2024-03-09T18:58:00.745Z,26.10
2024-03-09T19:00:32.752Z,26.58
2024-03-09T19:03:01.846Z,26.30
2024-03-09T19:05:29.353Z,26.44
2024-03-09T19:07:57.650Z,25.83
2024-03-09T19:10:24.999Z,26.64
2024-03-09T19:12:52.550Z,26.31
2024-03-09T19:15:20.760Z,26.40
2024-03-09T19:17:50.907Z,27.05
2024-03-09T19:20:28.176Z,26.04
2024-03-09T19:22:56.354Z,25.51
2024-03-09T19:25:23.535Z,25.92
2024-03-09T19:27:53.303Z,25.07
2024-03-09T19:30:22.689Z,26.21
2024-03-09T19:32:51.733Z,25.53
2024-03-09T19:35:23.185Z,25.66
2024-03-09T19:37:50.822Z,25.63
2024-03-09T19:40:18.976Z,25.50
2024-03-09T19:42:48.494Z,26.03
2024-03-09T19:45:19.058Z,25.76
2024-03-09T19:47:49.851Z,25.44
2024-03-09T19:50:17.269Z,25.81
2024-03-09T19:52:48.003Z,25.61
2024-03-09T19:55:20.527Z,25.88
2024-03-09T19:57:48.777Z,26.01
2024-03-09T20:00:24.919Z,26.25
2024-03-09T20:02:53.777Z,26.70
2024-03-09T20:05:26.085Z,26.43
2024-03-09T20:07:57.001Z,26.84
2024-03-09T20:10:26.021Z,26.06
2024-03-09T20:12:54.699Z,26.66
2024-03-09T20:15:22.220Z,26.27
2024-03-09T20:17:57.061Z,27.02
2024-03-09T20:20:25.864Z,26.50
2024-03-09T20:22:58.209Z,26.48
2024-03-09T20:25:25.769Z,27.39
2024-03-09T20:27:52.623Z,26.89
2024-03-09T20:30:20.934Z,27.62
2024-03-09T20:32:48.925Z,26.83
2024-03-09T20:35:19.672Z,26.84
2024-03-09T20:37:48.571Z,26.86
2024-03-09T20:40:20.962Z,26.71
2024-03-09T20:42:50.165Z,26.69
2024-03-09T20:45:18.367Z,26.77
2024-03-09T20:47:46.336Z,26.69
2024-03-09T20:50:15.435Z,26.69
2024-03-09T20:52:43.829Z,26.57
2024-03-09T20:55:12.155Z,26.18
2024-03-09T20:57:39.224Z,26.33
2024-03-09T21:00:11.162Z,25.36
2024-03-09T21:02:43.086Z,26.40
2024-03-09T21:05:14.063Z,26.11
2024-03-09T21:07:44.278Z,26.51
2024-03-09T21:10:11.189Z,26.79
2024-03-09T21:12:39.374Z,26.64
2024-03-09T21:15:07.440Z,25.98
2024-03-09T21:17:35.394Z,26.14
2024-03-09T21:20:13.001Z,26.40
2024-03-09T21:22:40.346Z,26.70
2024-03-09T21:25:11.462Z,26.08
2024-03-09T21:27:45.520Z,26.74
2024-03-09T21:30:15.583Z,26.47
2024-03-09T21:32:47.193Z,26.35
2024-03-09T21:35:14.846Z,26.65
2024-03-09T21:37:47.137Z,26.48
2024-03-09T21:40:14.803Z,27.22
2024-03-09T21:42:44.244Z,26.67
2024-03-09T21:45:12.629Z,26.51
2024-03-09T21:47:40.311Z,27.03
2024-03-09T21:50:07.620Z,26.83
2024-03-09T21:52:34.756Z,27.23
2024-03-09T21:55:01.562Z,26.97
2024-03-09T21:57:28.418Z,26.31
2024-03-09T21:59:55.191Z,26.97
2024-03-09T22:02:22.274Z,27.30
2024-03-09T22:04:49.161Z,27.18
2024-03-09T22:07:15.904Z,26.74
2024-03-09T22:09:42.747Z,27.36
2024-03-09T22:12:12.031Z,27.41
2024-03-09T22:14:39.923Z,26.51
2024-03-09T22:17:07.723Z,27.35
2024-03-09T22:19:34.566Z,27.31
2024-03-09T22:22:01.913Z,27.44
2024-03-09T22:24:28.680Z,27.42
2024-03-09T22:26:56.414Z,27.11
2024-03-09T22:29:23.781Z,27.47
2024-03-09T22:31:50.747Z,27.79
2024-03-09T22:34:17.508Z,27.71
2024-03-09T22:36:44.552Z,27.04
2024-03-09T22:39:13.142Z,27.33
2024-03-09T22:41:39.928Z,27.70
2024-03-09T22:44:07.662Z,28.00
2024-03-09T22:46:35.736Z,27.39
2024-03-09T22:49:06.021Z,27.27
2024-03-09T22:51:34.095Z,26.43
2024-03-09T22:54:01.963Z,26.93
2024-03-09T22:56:28.938Z,26.76
2024-03-09T22:58:56.184Z,26.79
2024-03-09T23:01:26.537Z,26.56
2024-03-09T23:03:56.859Z,26.80
2024-03-09T23:06:23.661Z,27.15
2024-03-09T23:08:50.392Z,26.70
2024-03-09T23:11:19.300Z,26.85
2024-03-09T23:13:47.889Z,26.74
2024-03-09T23:16:15.348Z,27.52
2024-03-09T23:18:42.496Z,27.31
2024-03-09T23:21:09.557Z,27.41
2024-03-09T23:23:36.362Z,27.49
2024-03-09T23:26:03.234Z,26.31
2024-03-09T23:28:30.213Z,27.62
2024-03-09T23:30:56.954Z,26.70
2024-03-09T23:33:24.414Z,26.99
2024-03-09T23:35:51.154Z,27.73
2024-03-09T23:38:19.243Z,28.10
2024-03-09T23:40:46.020Z,27.32
2024-03-09T23:43:12.842Z,27.48
2024-03-09T23:45:39.797Z,27.18
2024-03-09T23:48:06.949Z,26.64
2024-03-09T23:50:34.063Z,27.11
2024-03-09T23:53:00.904Z,27.19
2024-03-09T23:55:29.689Z,27.35
2024-03-09T23:57:56.540Z,26.93
